Time;durP1;ratioP1;P1;durP2;ratioP2;P2;SDS_P1;SDS_P2;PMS_P1;PMS_P2;Temp;Humidity;BMP_temperature;BMP_pressure;BME280_temperature;BME280_humidity;BME280_pressure;Samples;Min_cycle;Max_cycle;Signal;HPM_P1;HPM_P2
2022/10/13 00:00:42;;;;;;;11.68;5.47;;;;;;;7.80;100.00;100579.19;5041477;28;20037;-90
2022/10/13 00:03:12;;;;;;;10.13;5.35;;;;;;;7.74;100.00;100574.41;5063373;28;20035;-91
2022/10/13 00:05:43;;;;;;;11.63;4.85;;;;;;;7.68;100.00;100577.53;5056953;28;20043;-91
2022/10/13 00:08:15;;;;;;;8.05;4.55;;;;;;;7.64;100.00;100573.50;5072524;28;20079;-91
2022/10/13 00:10:46;;;;;;;10.38;5.60;;;;;;;7.61;100.00;100571.97;5068427;28;20039;-91
2022/10/13 00:13:17;;;;;;;17.27;5.35;;;;;;;7.59;100.00;100568.59;5082703;28;20059;-90
2022/10/13 00:15:47;;;;;;;25.75;6.93;;;;;;;7.57;100.00;100563.47;5090046;28;20036;-91
2022/10/13 00:18:17;;;;;;;19.80;9.77;;;;;;;7.56;100.00;100558.31;5074017;28;20056;-90
2022/10/13 00:20:48;;;;;;;13.30;8.32;;;;;;;7.59;100.00;100557.22;5040511;28;20066;-90
2022/10/13 00:23:17;;;;;;;17.83;9.55;;;;;;;7.57;100.00;100557.34;5048494;28;20029;-90
2022/10/13 00:25:46;;;;;;;20.67;10.20;;;;;;;7.56;100.00;100556.50;5055663;28;20039;-90
2022/10/13 00:28:16;;;;;;;18.85;10.32;;;;;;;7.56;100.00;100561.78;5059336;28;20032;-90
2022/10/13 00:30:45;;;;;;;18.48;10.93;;;;;;;7.57;100.00;100566.09;5063650;28;20039;-91
2022/10/13 00:33:14;;;;;;;21.67;10.82;;;;;;;7.58;100.00;100566.91;5056559;28;20154;-90
2022/10/13 00:35:45;;;;;;;22.52;11.25;;;;;;;7.59;100.00;100570.38;5073079;28;20032;-90
2022/10/13 00:38:17;;;;;;;20.85;13.40;;;;;;;7.56;100.00;100582.00;5073485;28;20102;-90
2022/10/13 00:40:50;;;;;;;26.67;14.05;;;;;;;7.55;100.00;100573.25;5078172;28;20036;-90
2022/10/13 00:43:22;;;;;;;19.40;10.88;;;;;;;7.53;100.00;100572.53;5038764;28;20031;-89
2022/10/13 00:45:53;;;;;;;11.23;6.22;;;;;;;7.50;100.00;100566.72;5046048;28;20085;-91
2022/10/13 00:48:27;;;;;;;12.02;5.45;;;;;;;7.48;100.00;100572.09;5053535;28;20025;-90
2022/10/13 00:50:57;;;;;;;;;;;;;;;7.39;100.00;100570.19;5052328;28;20333;-90
2022/10/13 00:53:31;;;;;;;9.07;4.80;;;;;;;7.39;100.00;100560.47;5056309;28;19912;-91
2022/10/13 00:56:01;;;;;;;17.00;6.85;;;;;;;7.37;100.00;100566.81;5076859;28;20066;-91
2022/10/13 00:58:32;;;;;;;15.60;5.55;;;;;;;7.32;100.00;100565.41;5044306;28;20048;-90
2022/10/13 01:01:00;;;;;;;25.50;8.65;;;;;;;7.18;100.00;100573.53;5065959;28;20036;-91
2022/10/13 01:03:28;;;;;;;29.75;8.23;;;;;;;7.12;100.00;100569.56;5050388;28;20097;-89
2022/10/13 01:06:01;;;;;;;21.67;8.43;;;;;;;7.05;100.00;100571.00;5038937;28;20036;-90
2022/10/13 01:08:31;;;;;;;18.77;7.10;;;;;;;7.01;100.00;100575.66;5056782;28;20095;-90
2022/10/13 01:11:09;;;;;;;17.75;7.45;;;;;;;6.98;100.00;100570.63;5044733;28;20032;-90
2022/10/13 01:14:08;;;;;;;19.17;8.65;;;;;;;6.94;100.00;100571.84;5069259;28;20032;-90
2022/10/13 01:16:45;;;;;;;18.48;7.22;;;;;;;6.91;100.00;100578.13;5021300;28;20536;-91
2022/10/13 01:19:36;;;;;;;24.98;7.82;;;;;;;6.88;100.00;100580.19;5027150;28;20413;-90
2022/10/13 01:22:26;;;;;;;16.23;6.57;;;;;;;6.82;100.00;100565.72;5070179;28;20032;-90
2022/10/13 01:25:22;;;;;;;14.95;7.13;;;;;;;6.88;100.00;100559.16;5042527;28;20036;-90
2022/10/13 01:28:03;;;;;;;15.10;6.75;;;;;;;6.91;100.00;100559.75;5071056;28;20039;-91
2022/10/13 01:30:37;;;;;;;16.17;8.60;;;;;;;6.91;100.00;100551.88;5065902;28;20059;-91
2022/10/13 01:33:23;;;;;;;15.30;7.03;;;;;;;6.90;100.00;100555.44;5063747;28;20117;-90
2022/10/13 01:36:14;;;;;;;25.48;7.35;;;;;;;6.88;100.00;100553.91;5060691;28;20032;-91
2022/10/13 01:38:55;;;;;;;14.85;8.02;;;;;;;6.88;100.00;100546.84;5043125;28;20071;-90
2022/10/13 01:41:39;;;;;;;16.08;7.75;;;;;;;6.88;100.00;100544.22;5076048;28;20127;-89
2022/10/13 01:44:17;;;;;;;18.52;7.43;;;;;;;6.84;100.00;100545.41;5044426;28;20039;-90
2022/10/13 01:46:54;;;;;;;18.08;7.70;;;;;;;6.81;100.00;100543.03;5074760;28;20067;-90
2022/10/13 01:49:28;;;;;;;17.17;7.43;;;;;;;6.79;100.00;100535.25;5028915;28;20064;-89
2022/10/13 01:52:08;;;;;;;18.40;7.95;;;;;;;6.75;100.00;100536.47;5076902;28;20405;-90
2022/10/13 01:54:38;;;;;;;20.05;7.15;;;;;;;6.73;100.00;100529.63;5042496;28;20067;-89
2022/10/13 01:57:41;;;;;;;20.77;7.20;;;;;;;6.76;100.00;100522.34;5058576;28;20507;-91
2022/10/13 02:00:11;;;;;;;15.70;6.95;;;;;;;6.76;100.00;100518.88;5086809;28;20040;-90
2022/10/13 02:03:01;;;;;;;36.45;8.98;;;;;;;6.76;100.00;100527.63;5071624;28;20101;-90
2022/10/13 02:05:39;;;;;;;31.95;9.88;;;;;;;6.79;100.00;100526.53;5092537;28;20024;-90
2022/10/13 02:08:25;;;;;;;40.25;10.70;;;;;;;6.78;100.00;100509.94;5062655;28;20038;-90
2022/10/13 02:11:15;;;;;;;62.47;9.83;;;;;;;6.76;100.00;100518.88;5077374;28;20035;-90
2022/10/13 02:14:20;;;;;;;123.75;11.18;;;;;;;6.74;100.00;100518.16;5062540;28;20039;-89
2022/10/13 02:16:50;;;;;;;135.15;12.45;;;;;;;6.68;100.00;100527.34;5038379;28;20040;-90
2022/10/13 02:19:19;;;;;;;60.63;9.48;;;;;;;6.65;100.00;100523.19;5062272;28;20114;-90
2022/10/13 02:21:47;;;;;;;24.70;8.55;;;;;;;6.66;100.00;100518.75;5066104;28;20054;-90
2022/10/13 02:24:16;;;;;;;29.60;8.32;;;;;;;6.67;100.00;100523.06;5047337;28;20242;-90
2022/10/13 02:26:46;;;;;;;46.53;8.68;;;;;;;6.67;100.00;100529.13;5064924;28;20031;-90
2022/10/13 02:29:17;;;;;;;41.40;7.70;;;;;;;6.69;100.00;100518.50;5062697;28;20111;-90
2022/10/13 02:31:47;;;;;;;98.43;9.40;;;;;;;6.60;100.00;100513.97;5042417;28;20024;-89
2022/10/13 02:34:17;;;;;;;26.70;7.70;;;;;;;6.55;100.00;100509.91;5055818;28;20028;-90
2022/10/13 02:36:48;;;;;;;44.47;7.88;;;;;;;6.50;100.00;100508.59;5062995;28;20118;-90
2022/10/13 02:39:18;;;;;;;66.63;7.78;;;;;;;6.43;100.00;100492.47;5073494;28;20045;-90
2022/10/13 02:41:47;;;;;;;40.42;7.00;;;;;;;6.38;100.00;100492.81;5040019;28;20032;-89
2022/10/13 02:44:16;;;;;;;42.85;8.20;;;;;;;6.32;100.00;100493.28;5079492;28;20035;-91
2022/10/13 02:46:44;;;;;;;16.58;7.13;;;;;;;6.28;100.00;100504.94;5042841;28;20039;-91
2022/10/13 02:49:12;;;;;;;15.38;6.93;;;;;;;6.29;100.00;100512.69;5070439;28;20043;-90
2022/10/13 02:51:40;;;;;;;26.05;7.88;;;;;;;6.29;100.00;100517.13;5084653;28;20038;-91
2022/10/13 02:54:08;;;;;;;18.52;7.07;;;;;;;6.31;100.00;100523.09;5080918;28;20039;-90
2022/10/13 02:56:36;;;;;;;19.33;8.70;;;;;;;6.31;100.00;100518.69;5062220;28;20039;-88
2022/10/13 02:59:05;;;;;;;16.98;6.50;;;;;;;6.32;100.00;100511.66;5031417;28;20047;-89
2022/10/13 03:01:39;;;;;;;20.80;7.75;;;;;;;6.32;100.00;100517.72;5058360;28;20028;-90
2022/10/13 03:04:10;;;;;;;10.93;6.13;;;;;;;6.30;100.00;100513.53;5020961;28;20422;-90
2022/10/13 03:06:40;;;;;;;31.00;6.78;;;;;;;6.27;100.00;100498.03;5045450;28;20044;-91
2022/10/13 03:09:11;;;;;;;44.55;7.90;;;;;;;6.21;100.00;100488.81;5021237;28;20040;-90
2022/10/13 03:11:44;;;;;;;13.52;5.97;;;;;;;6.25;100.00;100481.53;5057023;28;20033;-90
2022/10/13 03:14:12;;;;;;;21.83;8.55;;;;;;;6.23;100.00;100479.03;5058688;28;20047;-90
2022/10/13 03:16:39;;;;;;;38.35;7.80;;;;;;;6.19;100.00;100473.19;5074811;28;20480;-90
2022/10/13 03:19:10;;;;;;;20.58;7.13;;;;;;;6.20;100.00;100474.00;5037358;28;20401;-90
2022/10/13 03:21:38;;;;;;;72.97;8.07;;;;;;;6.23;100.00;100483.47;5049378;28;20033;-90
2022/10/13 03:24:06;;;;;;;100.07;8.25;;;;;;;6.23;100.00;100489.53;5045409;28;20063;-90
2022/10/13 03:26:34;;;;;;;52.78;7.60;;;;;;;6.24;100.00;100496.47;5039799;28;20051;-90
2022/10/13 03:29:02;;;;;;;43.85;7.13;;;;;;;6.25;100.00;100495.50;5047363;28;20052;-90
2022/10/13 03:31:30;;;;;;;22.77;6.43;;;;;;;6.27;100.00;100496.25;5042045;28;20039;-90
2022/10/13 03:34:08;;;;;;;28.50;7.03;;;;;;;6.31;100.00;100495.06;5024784;28;20476;-90
2022/10/13 03:36:38;;;;;;;17.70;6.07;;;;;;;6.35;100.00;100495.66;5021807;28;20040;-89
2022/10/13 03:39:07;;;;;;;15.57;7.10;;;;;;;6.39;100.00;100491.84;5047865;28;20166;-90
2022/10/13 03:41:35;;;;;;;16.90;6.93;;;;;;;6.42;100.00;100482.88;5039360;28;20111;-90
2022/10/13 03:44:04;;;;;;;24.67;6.22;;;;;;;6.42;100.00;100469.75;5043550;28;20033;-90
2022/10/13 03:46:32;;;;;;;23.92;5.38;;;;;;;6.38;100.00;100469.19;5041502;28;20044;-89
2022/10/13 03:49:00;;;;;;;10.73;5.40;;;;;;;6.35;100.00;100477.28;5042085;28;20032;-90
2022/10/13 03:51:29;;;;;;;9.60;5.93;;;;;;;6.32;100.00;100480.97;5068435;28;20043;-89
2022/10/13 03:53:58;;;;;;;10.80;5.75;;;;;;;6.32;100.00;100486.22;5071866;28;20032;-90
2022/10/13 03:56:27;;;;;;;18.58;5.60;;;;;;;6.30;100.00;100479.41;5036936;28;20566;-90
2022/10/13 03:58:59;;;;;;;8.93;5.32;;;;;;;6.30;100.00;100472.38;5052879;28;20382;-89
2022/10/13 04:01:29;;;;;;;21.15;5.43;;;;;;;6.29;100.00;100467.25;5039807;28;20128;-90
2022/10/13 04:04:00;;;;;;;30.70;5.38;;;;;;;6.27;100.00;100459.50;5039782;28;20052;-89
2022/10/13 04:06:31;;;;;;;21.45;5.22;;;;;;;6.22;100.00;100458.16;5052986;28;20040;-89
2022/10/13 04:09:01;;;;;;;21.80;5.80;;;;;;;6.22;100.00;100450.28;5053693;28;20029;-90
2022/10/13 04:11:30;;;;;;;16.35;4.97;;;;;;;6.21;100.00;100446.84;5018799;28;20131;-90
2022/10/13 04:14:00;;;;;;;24.30;4.90;;;;;;;6.21;100.00;100452.09;5021124;28;20039;-90
2022/10/13 04:16:31;;;;;;;8.57;4.82;;;;;;;6.23;100.00;100436.22;5040094;28;20481;-89
2022/10/13 04:19:05;;;;;;;13.32;5.28;;;;;;;6.24;100.00;100422.13;5041853;28;20028;-89
2022/10/13 04:21:34;;;;;;;6.38;4.82;;;;;;;6.23;100.00;100429.16;5056603;28;20040;-90
2022/10/13 04:24:02;;;;;;;6.93;4.65;;;;;;;6.23;100.00;100423.91;5052653;28;20078;-90
2022/10/13 04:26:33;;;;;;;7.03;3.70;;;;;;;6.23;100.00;100423.91;5054957;28;20082;-89
2022/10/13 04:29:08;;;;;;;13.53;4.07;;;;;;;6.20;100.00;100419.75;5045025;28;20025;-89
2022/10/13 04:31:38;;;;;;;15.35;4.25;;;;;;;6.26;100.00;100426.31;5055928;28;20566;-88
2022/10/13 04:34:06;;;;;;;31.45;4.20;;;;;;;6.22;100.00;100419.63;5038381;28;20032;-89
2022/10/13 04:36:35;;;;;;;39.20;5.10;;;;;;;6.23;100.00;100423.09;5024322;28;20040;-89
2022/10/13 04:39:03;;;;;;;24.55;4.40;;;;;;;6.23;100.00;100425.72;5015895;28;20040;-90
2022/10/13 04:41:34;;;;;;;89.95;5.35;;;;;;;6.20;100.00;100434.66;5069147;28;20557;-88
2022/10/13 04:44:01;;;;;;;13.02;4.15;;;;;;;6.21;100.00;100444.22;5049804;28;20036;-90
2022/10/13 04:46:31;;;;;;;84.47;5.68;;;;;;;6.20;100.00;100440.75;5044470;28;20488;-89
2022/10/13 04:49:00;;;;;;;107.00;6.32;;;;;;;6.18;100.00;100442.63;5055329;28;20035;-89
2022/10/13 04:51:32;;;;;;;57.35;5.72;;;;;;;6.14;100.00;100445.59;5038942;28;20139;-89
2022/10/13 04:54:01;;;;;;;7.50;4.53;;;;;;;6.13;100.00;100436.88;5054747;28;20044;-82
2022/10/13 04:56:29;;;;;;;42.17;6.32;;;;;;;6.11;100.00;100444.06;5067728;28;20025;-82
2022/10/13 04:59:04;;;;;;;52.00;5.53;;;;;;;6.04;100.00;100435.81;5054519;28;20055;-89
2022/10/13 05:01:33;;;;;;;40.13;4.72;;;;;;;6.02;100.00;100442.91;5053098;28;20067;-90
2022/10/13 05:04:03;;;;;;;19.98;5.07;;;;;;;6.01;100.00;100440.41;5087475;28;20032;-89
2022/10/13 05:06:37;;;;;;;22.25;5.00;;;;;;;6.02;100.00;100435.03;5035218;28;20485;-90
2022/10/13 05:09:06;;;;;;;19.70;4.72;;;;;;;6.00;100.00;100431.72;5068670;28;20028;-90
2022/10/13 05:11:34;;;;;;;11.68;4.47;;;;;;;6.00;100.00;100430.88;5033852;28;20055;-90
2022/10/13 05:14:02;;;;;;;27.45;4.82;;;;;;;6.01;100.00;100446.50;5057577;28;20058;-89
2022/10/13 05:16:30;;;;;;;40.90;4.78;;;;;;;6.02;100.00;100440.28;5053977;28;20122;-89
2022/10/13 05:18:59;;;;;;;11.63;4.75;;;;;;;6.08;100.00;100444.28;5067821;28;20033;-90
2022/10/13 05:21:28;;;;;;;18.20;4.18;;;;;;;6.09;100.00;100438.06;5054318;28;20043;-89
2022/10/13 05:24:01;;;;;;;14.27;3.78;;;;;;;6.10;100.00;100441.56;5073499;28;20077;-90
2022/10/13 05:26:32;;;;;;;27.90;4.20;;;;;;;6.08;100.00;100431.97;5037894;28;20036;-90
2022/10/13 05:29:01;;;;;;;30.05;4.15;;;;;;;6.06;100.00;100417.31;5072961;28;20024;-90
2022/10/13 05:31:33;;;;;;;60.85;5.20;;;;;;;6.02;100.00;100413.22;5059642;28;20127;-90
2022/10/13 05:34:01;;;;;;;51.97;3.95;;;;;;;5.97;100.00;100403.09;5086977;28;20036;-90
2022/10/13 05:36:32;;;;;;;26.60;4.65;;;;;;;5.88;100.00;100385.38;5044028;28;20113;-90
2022/10/13 05:39:05;;;;;;;67.05;5.18;;;;;;;5.65;100.00;100378.31;5091440;28;20044;-89
2022/10/13 05:41:35;;;;;;;25.70;3.97;;;;;;;5.58;100.00;100374.44;5076530;28;20040;-90
2022/10/13 05:44:09;;;;;;;18.92;3.90;;;;;;;5.61;100.00;100361.13;5051785;28;20036;-90
2022/10/13 05:46:43;;;;;;;12.35;3.72;;;;;;;5.60;100.00;100364.69;5035352;28;20078;-90
2022/10/13 05:49:11;;;;;;;9.13;4.28;;;;;;;5.53;100.00;100372.16;5052611;28;20492;-91
2022/10/13 05:51:48;;;;;;;8.30;4.72;;;;;;;5.48;100.00;100355.94;5071922;28;20044;-90
2022/10/13 05:54:31;;;;;;;10.32;3.80;;;;;;;5.41;100.00;100362.59;5052689;28;20760;-90
2022/10/13 05:57:11;;;;;;;8.57;3.53;;;;;;;5.41;100.00;100368.69;5071303;28;20127;-90
2022/10/13 05:59:44;;;;;;;21.05;4.28;;;;;;;5.42;100.00;100375.59;5041664;28;20081;-90
2022/10/13 06:02:15;;;;;;;5.03;3.97;;;;;;;5.44;100.00;100375.47;5069419;28;20066;-90
2022/10/13 06:04:49;;;;;;;44.85;4.25;;;;;;;5.46;100.00;100390.13;5075301;28;20036;-90
2022/10/13 06:07:17;;;;;;;17.65;4.20;;;;;;;5.48;100.00;100402.31;5050051;28;20032;-90
2022/10/13 06:09:46;;;;;;;10.05;4.43;;;;;;;5.44;100.00;100392.03;5065387;28;20034;-90
2022/10/13 06:12:14;;;;;;;25.90;4.40;;;;;;;5.37;100.00;100392.63;5079245;28;20177;-90
2022/10/13 06:14:42;;;;;;;22.58;5.50;;;;;;;5.33;100.00;100403.31;5058672;28;20044;-90
2022/10/13 06:17:11;;;;;;;10.88;4.43;;;;;;;5.25;100.00;100404.81;5070531;28;20304;-90
2022/10/13 06:19:44;;;;;;;10.52;4.30;;;;;;;5.15;100.00;100400.22;5060930;28;20036;-89
2022/10/13 06:22:12;;;;;;;15.40;5.43;;;;;;;5.07;100.00;100402.56;5086648;28;20040;-90
2022/10/13 06:24:41;;;;;;;59.80;4.78;;;;;;;4.96;100.00;100398.06;5090275;28;20768;-89
2022/10/13 06:27:11;;;;;;;31.20;5.15;;;;;;;4.88;100.00;100405.63;5047059;28;20047;-90
2022/10/13 06:29:38;;;;;;;46.47;6.10;;;;;;;4.84;100.00;100398.00;5055703;28;20028;-90
2022/10/13 06:32:07;;;;;;;50.72;5.68;;;;;;;4.87;100.00;100406.59;5062191;28;20060;-89
2022/10/13 06:34:35;;;;;;;86.47;7.63;;;;;;;4.86;100.00;100407.53;5071415;28;20063;-90
2022/10/13 06:37:02;;;;;;;57.75;3.97;;;;;;;4.92;100.00;100396.63;5046237;28;20507;-90
2022/10/13 06:39:30;;;;;;;8.38;3.67;;;;;;;4.95;100.00;100391.19;5042208;28;20480;-90
2022/10/13 06:42:00;;;;;;;128.82;5.40;;;;;;;5.00;100.00;100389.03;5061008;28;20035;-89
2022/10/13 06:44:31;;;;;;;9.95;3.42;;;;;;;5.05;100.00;100386.94;5065013;28;20098;-90
2022/10/13 06:47:03;;;;;;;27.05;3.67;;;;;;;5.08;100.00;100385.91;5047969;28;20384;-90
2022/10/13 06:49:31;;;;;;;17.73;3.10;;;;;;;5.11;100.00;100385.69;5079673;28;20024;-90
2022/10/13 06:51:58;;;;;;;3.95;3.45;;;;;;;5.14;100.00;100393.31;5087423;28;20059;-90
2022/10/13 06:54:26;;;;;;;19.25;3.55;;;;;;;5.15;100.00;100396.75;5073257;28;20032;-90
2022/10/13 06:56:54;;;;;;;6.35;2.67;;;;;;;5.14;100.00;100387.22;5055855;28;20028;-90
2022/10/13 06:59:25;;;;;;;15.88;3.50;;;;;;;5.17;100.00;100379.16;5054609;28;20048;-83
2022/10/13 07:01:54;;;;;;;8.60;2.45;;;;;;;5.14;100.00;100379.38;5064054;28;20072;-84
2022/10/13 07:04:24;;;;;;;15.23;3.15;;;;;;;5.17;100.00;100389.63;5037178;28;20041;-90
2022/10/13 07:06:56;;;;;;;3.40;2.33;;;;;;;5.24;100.00;100392.66;5044922;28;20032;-91
2022/10/13 07:09:25;;;;;;;3.70;3.10;;;;;;;5.25;100.00;100386.47;5060901;28;20035;-90
2022/10/13 07:11:53;;;;;;;4.47;2.75;;;;;;;5.27;100.00;100403.72;5069572;28;20069;-90
2022/10/13 07:14:22;;;;;;;3.22;2.85;;;;;;;5.33;100.00;100405.94;5055220;28;20043;-89
2022/10/13 07:16:50;;;;;;;4.47;2.78;;;;;;;5.33;100.00;100403.31;5079899;28;20502;-89
2022/10/13 07:19:18;;;;;;;6.72;2.67;;;;;;;5.37;100.00;100411.78;5080689;28;20040;-89
2022/10/13 07:21:46;;;;;;;7.55;3.00;;;;;;;5.41;100.00;100413.25;5044964;28;20066;-90
2022/10/13 07:24:15;;;;;;;5.20;3.15;;;;;;;5.41;100.00;100413.25;5061749;28;20039;-89
2022/10/13 07:26:43;;;;;;;9.60;2.88;;;;;;;5.39;100.00;100414.28;5068189;28;20024;-89
2022/10/13 07:29:12;;;;;;;3.35;2.67;;;;;;;5.44;100.00;100415.63;5050664;28;20028;-89
2022/10/13 07:31:42;;;;;;;7.13;2.35;;;;;;;5.50;100.00;100422.22;5037361;28;20126;-88
2022/10/13 07:34:12;;;;;;;4.60;2.65;;;;;;;5.54;100.00;100413.16;5099037;28;20047;-88
2022/10/13 07:36:40;;;;;;;3.15;2.65;;;;;;;5.54;100.00;100410.53;5077281;28;20071;-88
2022/10/13 07:39:08;;;;;;;3.17;2.40;;;;;;;5.56;100.00;100410.44;5080342;28;20043;-88
2022/10/13 07:41:36;;;;;;;3.75;2.92;;;;;;;5.61;100.00;100407.47;5045325;28;20033;-88
2022/10/13 07:44:06;;;;;;;2.70;2.47;;;;;;;5.62;100.00;100393.44;5067577;28;20030;-88
2022/10/13 07:46:36;;;;;;;3.70;2.50;;;;;;;5.65;100.00;100393.19;5079696;28;20036;-88
2022/10/13 07:49:05;;;;;;;5.65;2.88;;;;;;;5.72;100.00;100404.88;5084713;28;20054;-87
2022/10/13 07:51:33;;;;;;;5.75;3.50;;;;;;;5.77;100.00;100402.78;5044026;28;20372;-88
2022/10/13 07:54:01;;;;;;;5.03;2.70;;;;;;;5.85;100.00;100396.94;5063857;28;20031;-88
2022/10/13 07:56:29;;;;;;;5.65;2.88;;;;;;;5.89;100.00;100395.75;5044260;28;20028;-88
2022/10/13 07:58:59;;;;;;;4.15;2.67;;;;;;;5.93;100.00;100394.59;5048957;28;20047;-88
2022/10/13 08:01:28;;;;;;;6.57;2.97;;;;;;;5.99;100.00;100390.66;5073283;28;20044;-89
2022/10/13 08:03:58;;;;;;;4.70;3.40;;;;;;;6.04;100.00;100385.94;5051408;28;20440;-89
2022/10/13 08:06:26;;;;;;;3.90;2.47;;;;;;;6.11;100.00;100386.31;5057382;28;20035;-88
2022/10/13 08:08:59;;;;;;;3.50;2.70;;;;;;;6.20;100.00;100390.03;5085504;28;20060;-89
2022/10/13 08:11:27;;;;;;;4.28;2.35;;;;;;;6.25;100.00;100393.13;5075453;28;20028;-87
2022/10/13 08:14:00;;;;;;;2.58;2.28;;;;;;;6.26;100.00;100380.88;5049677;28;20032;-88
2022/10/13 08:16:32;;;;;;;4.65;2.63;;;;;;;6.27;100.00;100385.16;5057728;28;20043;-88
2022/10/13 08:19:00;;;;;;;4.25;2.97;;;;;;;6.33;100.00;100390.78;5072969;28;20086;-89
2022/10/13 08:21:29;;;;;;;4.45;2.38;;;;;;;6.38;100.00;100389.56;5079324;28;20105;-88
2022/10/13 08:23:57;;;;;;;4.13;2.85;;;;;;;6.40;100.00;100391.13;5067324;28;20032;-88
2022/10/13 08:26:28;;;;;;;5.20;3.38;;;;;;;6.45;100.00;100393.38;5057017;28;20093;-88
2022/10/13 08:28:56;;;;;;;9.05;3.40;;;;;;;6.48;100.00;100402.84;5072501;28;20101;-88
2022/10/13 08:31:24;;;;;;;7.38;3.88;;;;;;;6.42;100.00;100399.72;5067871;28;20398;-87
2022/10/13 08:33:53;;;;;;;7.00;3.83;;;;;;;6.44;100.00;100410.94;5059363;28;20036;-88
2022/10/13 08:36:20;;;;;;;6.10;3.60;;;;;;;6.44;100.00;100420.59;5065190;28;20038;-88
2022/10/13 08:38:52;;;;;;;3.92;3.15;;;;;;;6.51;100.00;100419.19;5071240;28;20047;-86
2022/10/13 08:41:43;;;;;;;4.30;3.33;;;;;;;6.61;100.00;100418.47;5058269;28;20035;-88
2022/10/13 08:44:34;;;;;;;6.78;3.10;;;;;;;6.72;100.00;100420.25;5082694;28;20036;-88
2022/10/13 08:47:12;;;;;;;8.00;3.22;;;;;;;6.85;100.00;100420.97;5055715;28;20151;-88
2022/10/13 08:49:45;;;;;;;8.27;2.83;;;;;;;6.99;100.00;100398.84;5068011;28;20032;-88
2022/10/13 08:52:25;;;;;;;8.13;2.70;;;;;;;7.15;100.00;100395.81;5042635;28;20035;-88
2022/10/13 08:54:57;;;;;;;9.50;2.70;;;;;;;7.30;100.00;100392.94;5074885;28;20639;-87
2022/10/13 08:57:27;;;;;;;12.25;2.83;;;;;;;7.45;100.00;100388.22;5080168;28;20062;-88
2022/10/13 08:59:57;;;;;;;7.35;2.80;;;;;;;7.61;100.00;100392.22;5059846;28;20020;-88
2022/10/13 09:02:30;;;;;;;8.85;2.50;;;;;;;7.77;100.00;100399.69;5071380;28;20040;-88
2022/10/13 09:05:03;;;;;;;9.43;2.35;;;;;;;7.89;100.00;100396.03;5034370;28;20059;-89
2022/10/13 09:07:36;;;;;;;7.45;2.60;;;;;;;8.00;100.00;100381.13;5047716;28;20608;-89
2022/10/13 09:10:07;;;;;;;8.95;3.05;;;;;;;8.08;100.00;100386.59;5058753;28;20089;-88
2022/10/13 09:12:36;;;;;;;10.75;2.53;;;;;;;8.19;100.00;100375.16;5061883;28;20556;-89
2022/10/13 09:15:10;;;;;;;9.23;2.70;;;;;;;8.31;100.00;100365.38;5065810;28;20569;-88
2022/10/13 09:17:40;;;;;;;14.23;2.90;;;;;;;8.44;100.00;100371.25;5075146;28;20032;-88
2022/10/13 09:20:26;;;;;;;7.07;2.67;;;;;;;8.56;100.00;100358.88;5074133;28;20536;-89
2022/10/13 09:23:19;;;;;;;11.50;2.83;;;;;;;8.63;100.00;100351.25;5064808;28;20036;-88
2022/10/13 09:25:50;;;;;;;12.30;3.15;;;;;;;8.70;100.00;100351.53;5075672;28;20066;-88
2022/10/13 09:28:26;;;;;;;8.57;2.80;;;;;;;8.77;100.00;100344.78;5074932;28;20498;-88
2022/10/13 09:31:12;;;;;;;9.90;3.22;;;;;;;8.84;100.00;100338.97;5050961;28;20047;-88
2022/10/13 09:33:40;;;;;;;6.32;2.28;;;;;;;8.91;100.00;100333.03;5067813;28;20036;-88
2022/10/13 09:36:11;;;;;;;13.45;3.08;;;;;;;9.02;100.00;100332.06;5054545;28;20033;-88
2022/10/13 09:38:44;;;;;;;8.50;2.45;;;;;;;9.11;100.00;100319.03;5073514;28;20437;-88
2022/10/13 09:41:20;;;;;;;13.20;2.75;;;;;;;9.20;100.00;100322.63;5056619;28;20032;-88
2022/10/13 09:43:48;;;;;;;9.13;2.47;;;;;;;9.25;100.00;100329.16;5042953;28;20028;-88
2022/10/13 09:46:49;;;;;;;10.55;2.63;;;;;;;9.36;100.00;100317.66;5041219;28;20039;-88
2022/10/13 09:49:36;;;;;;;13.38;2.67;;;;;;;9.46;100.00;100316.81;5077036;28;20035;-88
2022/10/13 09:52:24;;;;;;;12.00;2.67;;;;;;;9.56;100.00;100317.63;5075887;28;20111;-88
2022/10/13 09:54:59;;;;;;;13.50;3.38;;;;;;;9.66;100.00;100313.19;5063036;28;20495;-89
2022/10/13 09:57:29;;;;;;;;;;;;;;;9.66;100.00;100299.97;5043609;28;20404;-87
2022/10/13 10:00:03;;;;;;;10.45;2.45;;;;;;;9.82;100.00;100305.63;5055719;28;20396;-90
2022/10/13 10:02:51;;;;;;;13.57;2.78;;;;;;;9.97;100.00;100306.81;5076138;28;20484;-89
2022/10/13 10:05:25;;;;;;;13.80;3.55;;;;;;;10.10;100.00;100301.22;5064279;28;20029;-90
2022/10/13 10:08:05;;;;;;;11.48;3.75;;;;;;;10.24;100.00;100294.63;5044058;28;20035;-88
2022/10/13 10:10:36;;;;;;;17.00;4.22;;;;;;;10.38;100.00;100284.56;5058326;28;20029;-89
2022/10/13 10:13:12;;;;;;;12.98;3.25;;;;;;;10.50;100.00;100275.50;5063873;28;20128;-90
2022/10/13 10:16:10;;;;;;;14.95;3.58;;;;;;;10.56;100.00;100268.78;5069246;28;20089;-88
2022/10/13 10:18:53;;;;;;;16.30;3.80;;;;;;;10.63;100.00;100271.66;5070869;28;20112;-89
2022/10/13 10:21:27;;;;;;;14.35;3.42;;;;;;;10.70;100.00;100267.47;5059857;28;20024;-90
2022/10/13 10:24:21;;;;;;;24.52;4.22;;;;;;;10.79;100.00;100269.19;5074890;28;20045;-89
2022/10/13 10:27:19;;;;;;;13.95;3.53;;;;;;;10.92;100.00;100258.22;5052528;28;20037;-90
2022/10/13 10:29:54;;;;;;;15.05;3.90;;;;;;;11.19;100.00;100262.75;5070401;28;20531;-91
2022/10/13 10:32:32;;;;;;;;;;;;;;;11.33;100.00;100256.91;5074730;28;20477;-90
2022/10/13 10:35:44;;;;;;;14.02;3.30;;;;;;;11.62;100.00;100257.59;5051918;28;19965;-92
2022/10/13 10:38:16;;;;;;;22.38;4.15;;;;;;;11.79;100.00;100243.47;5086663;28;20082;-91
2022/10/13 10:40:59;;;;;;;23.50;4.53;;;;;;;11.86;100.00;100240.19;5059758;28;20032;-93
2022/10/13 10:43:49;;;;;;;16.83;4.13;;;;;;;12.02;100.00;100248.22;5069373;28;20040;-92
2022/10/13 10:46:23;;;;;;;17.52;4.20;;;;;;;12.15;100.00;100242.50;5057160;28;20074;-92
2022/10/13 10:49:00;;;;;;;21.27;4.82;;;;;;;12.22;100.00;100244.50;5050712;28;20401;-92
2022/10/13 10:51:36;;;;;;;22.33;3.53;;;;;;;12.27;100.00;100251.00;5041243;28;20115;-93
2022/10/13 10:54:32;;;;;;;17.60;4.10;;;;;;;12.32;100.00;100250.53;5058379;28;20037;-91
2022/10/13 10:57:14;;;;;;;18.30;3.80;;;;;;;12.42;100.00;100254.84;5066674;28;20032;-92
2022/10/13 10:59:49;;;;;;;23.50;4.25;;;;;;;12.44;100.00;100259.00;5042404;28;20035;-93
2022/10/13 11:02:16;;;;;;;16.98;3.50;;;;;;;12.40;100.00;100258.50;5022999;28;20044;-91
2022/10/13 11:04:51;;;;;;;11.88;3.10;;;;;;;12.45;100.00;100263.31;5046368;28;20509;-91
2022/10/13 11:07:22;;;;;;;16.65;3.22;;;;;;;12.57;100.00;100255.03;5023894;28;20040;-93
2022/10/13 11:09:51;;;;;;;21.90;3.55;;;;;;;12.68;100.00;100248.63;5036236;28;20051;-91
2022/10/13 11:12:19;;;;;;;16.02;2.65;;;;;;;12.87;100.00;100250.97;5073450;28;20032;-90
2022/10/13 11:15:21;;;;;;;13.02;2.78;;;;;;;13.02;100.00;100234.41;5071984;28;20060;-91
2022/10/13 11:17:51;;;;;;;18.20;2.70;;;;;;;13.15;100.00;100233.91;5055063;28;20068;-89
2022/10/13 11:20:21;;;;;;;11.10;2.55;;;;;;;13.30;100.00;100222.63;5041901;28;20047;-90
2022/10/13 11:22:59;;;;;;;16.25;2.92;;;;;;;13.40;100.00;100225.91;5030634;28;20058;-90
2022/10/13 11:25:43;;;;;;;15.20;2.58;;;;;;;13.45;100.00;100228.06;5022216;28;20459;-91
2022/10/13 11:28:22;;;;;;;15.63;2.95;;;;;;;13.55;100.00;100231.41;5037490;28;20514;-91
2022/10/13 11:31:13;;;;;;;12.48;2.25;;;;;;;13.59;100.00;100230.06;5028702;28;20032;-91
2022/10/13 11:33:43;;;;;;;17.60;2.75;;;;;;;13.63;100.00;100226.03;5038949;28;20040;-89
2022/10/13 11:36:30;;;;;;;11.20;2.13;;;;;;;13.75;100.00;100234.50;5040388;28;20041;-92
2022/10/13 11:39:27;;;;;;;13.15;2.60;;;;;;;13.82;100.00;100234.66;5064943;28;20040;-92
2022/10/13 11:42:12;;;;;;;8.27;1.80;;;;;;;13.84;100.00;100226.50;5008186;28;20067;-90
2022/10/13 11:45:02;;;;;;;14.13;2.28;;;;;;;13.96;100.00;100221.63;5034458;28;20033;-89
2022/10/13 11:48:01;;;;;;;10.27;2.10;;;;;;;14.14;100.00;100229.38;5040623;28;20032;-92